createdAt,value
2018-06-14T00:01:14.267Z,10.37
2018-06-14T00:03:42.787Z,10.03
2018-06-14T00:06:11.333Z,9.23
2018-06-14T00:08:39.867Z,10.57
2018-06-14T00:11:08.429Z,10.57
2018-06-14T00:13:36.945Z,10.03
2018-06-14T00:16:05.556Z,10.60
2018-06-14T00:18:33.785Z,10.67
2018-06-14T00:21:02.354Z,9.90
2018-06-14T00:23:30.916Z,9.90
2018-06-14T00:25:59.415Z,9.83
2018-06-14T00:28:27.974Z,10.63
2018-06-14T00:30:56.519Z,10.47
2018-06-14T00:33:25.316Z,10.57
2018-06-14T00:35:53.869Z,11.70
2018-06-14T00:38:22.478Z,9.90
2018-06-14T00:40:51.151Z,11.40
2018-06-14T00:43:19.991Z,10.20
2018-06-14T00:45:48.525Z,9.83
2018-06-14T00:48:17.093Z,10.00
2018-06-14T00:50:45.601Z,10.97
2018-06-14T00:53:14.160Z,11.40
2018-06-14T00:55:42.687Z,10.37
2018-06-14T00:58:11.182Z,10.87
2018-06-14T01:00:39.746Z,11.13
2018-06-14T01:03:08.226Z,10.93
2018-06-14T01:05:36.749Z,10.93
2018-06-14T01:08:05.285Z,11.43
2018-06-14T01:10:33.798Z,11.67
2018-06-14T01:13:03.313Z,10.23
2018-06-14T01:15:32.305Z,11.57
2018-06-14T01:18:01.166Z,11.20
2018-06-14T01:20:29.734Z,11.27
2018-06-14T01:22:58.273Z,11.93
2018-06-14T01:25:26.822Z,10.90
2018-06-14T01:27:55.313Z,10.23
2018-06-14T01:30:23.880Z,11.33
2018-06-14T01:32:52.693Z,11.80
2018-06-14T01:35:21.197Z,11.80
2018-06-14T01:38:01.098Z,12.40
2018-06-14T01:40:29.625Z,12.40
2018-06-14T01:42:58.121Z,12.13
2018-06-14T01:45:26.638Z,11.37
2018-06-14T01:47:55.324Z,12.03
2018-06-14T01:50:24.589Z,11.30
2018-06-14T01:52:53.069Z,12.03
2018-06-14T01:55:21.649Z,11.70
2018-06-14T01:57:50.253Z,11.50
2018-06-14T02:00:18.796Z,11.73
2018-06-14T02:02:47.370Z,11.87
2018-06-14T02:05:15.947Z,11.37
2018-06-14T02:07:44.494Z,11.30
2018-06-14T02:10:13.013Z,11.53
2018-06-14T02:12:41.577Z,11.53
2018-06-14T02:15:10.097Z,11.33
2018-06-14T02:17:38.630Z,11.70
2018-06-14T02:20:07.204Z,12.20
2018-06-14T02:22:35.708Z,12.07
2018-06-14T02:25:03.934Z,12.80
2018-06-14T02:27:32.666Z,12.20
2018-06-14T02:30:01.196Z,12.50
2018-06-14T02:32:30.388Z,12.67
2018-06-14T02:34:59.637Z,11.90
2018-06-14T02:37:28.882Z,12.00
2018-06-14T02:39:58.585Z,12.20
2018-06-14T02:42:27.820Z,11.73
2018-06-14T02:44:57.017Z,12.10
2018-06-14T02:47:26.193Z,13.00
2018-06-14T02:49:54.740Z,11.90
2018-06-14T02:52:23.220Z,12.60
2018-06-14T02:54:51.792Z,11.67
2018-06-14T02:57:20.284Z,12.13
2018-06-14T02:59:49.093Z,12.67
2018-06-14T03:02:17.633Z,11.70
2018-06-14T03:04:46.150Z,11.77
2018-06-14T03:07:18.841Z,12.00
2018-06-14T03:09:47.340Z,11.53
2018-06-14T03:12:15.840Z,12.17
2018-06-14T03:14:44.347Z,11.93
2018-06-14T03:17:12.892Z,11.80
2018-06-14T03:19:41.465Z,11.90
2018-06-14T03:22:09.971Z,10.97
2018-06-14T03:24:38.519Z,11.60
2018-06-14T03:27:07.065Z,11.20
2018-06-14T03:29:35.585Z,11.77
2018-06-14T03:32:04.116Z,11.77
2018-06-14T03:34:33.058Z,11.67
2018-06-14T03:37:01.974Z,11.43
2018-06-14T03:39:30.531Z,12.07
2018-06-14T03:42:04.516Z,12.07
2018-06-14T03:44:33.676Z,11.10
2018-06-14T03:47:02.260Z,12.00
2018-06-14T03:49:30.810Z,12.50
2018-06-14T03:51:59.369Z,12.27
2018-06-14T03:54:27.898Z,11.47
2018-06-14T03:56:56.550Z,11.97
2018-06-14T03:59:25.090Z,11.73
2018-06-14T04:01:53.608Z,11.17
2018-06-14T04:04:22.121Z,11.53
2018-06-14T04:06:50.743Z,12.17
2018-06-14T04:09:19.349Z,11.83
2018-06-14T04:11:48.225Z,12.70
2018-06-14T04:14:16.708Z,12.47
2018-06-14T04:16:45.226Z,12.30
2018-06-14T04:19:13.697Z,12.47
2018-06-14T04:21:42.204Z,12.00
2018-06-14T04:24:10.686Z,12.43
2018-06-14T04:26:39.209Z,12.30
2018-06-14T04:29:07.735Z,12.77
2018-06-14T04:31:36.279Z,13.00
2018-06-14T04:34:04.820Z,11.97
2018-06-14T04:36:33.340Z,14.07
2018-06-14T04:39:01.863Z,12.80
2018-06-14T04:41:30.350Z,11.87
2018-06-14T04:43:58.874Z,12.70
2018-06-14T04:46:27.395Z,13.77
2018-06-14T04:48:55.882Z,12.87
2018-06-14T04:51:24.394Z,13.30
2018-06-14T04:53:52.910Z,12.70
2018-06-14T04:56:21.474Z,12.23
2018-06-14T04:58:50.067Z,12.87
2018-06-14T05:01:18.609Z,12.30
2018-06-14T05:03:47.102Z,15.20
2018-06-14T05:06:15.668Z,12.80
2018-06-14T05:08:44.183Z,14.23
2018-06-14T05:11:12.720Z,13.17
2018-06-14T05:13:41.201Z,13.73
2018-06-14T05:16:09.690Z,13.53
2018-06-14T05:18:38.221Z,13.37
2018-06-14T05:21:06.766Z,14.40
2018-06-14T05:23:35.354Z,14.20
2018-06-14T05:26:03.873Z,13.73
2018-06-14T05:28:32.435Z,12.87
2018-06-14T05:31:00.969Z,13.17
2018-06-14T05:33:29.505Z,13.33
2018-06-14T05:35:58.038Z,13.00
2018-06-14T05:38:26.678Z,12.97
2018-06-14T05:40:55.208Z,13.70
2018-06-14T05:43:23.719Z,13.67
2018-06-14T05:45:52.262Z,14.13
2018-06-14T05:48:20.779Z,12.53
2018-06-14T05:50:49.313Z,12.83
2018-06-14T05:53:17.834Z,13.53
2018-06-14T05:55:46.325Z,13.73
2018-06-14T05:58:14.822Z,14.13
2018-06-14T06:00:43.516Z,13.87
2018-06-14T06:03:12.073Z,13.87
2018-06-14T06:05:40.629Z,13.00
2018-06-14T06:08:09.241Z,13.43
2018-06-14T06:10:37.777Z,12.90
2018-06-14T06:13:06.361Z,13.93
2018-06-14T06:15:34.924Z,12.77
2018-06-14T06:18:03.465Z,13.57
2018-06-14T06:20:32.002Z,13.40
2018-06-14T06:23:01.300Z,12.67
2018-06-14T06:25:29.876Z,13.30
2018-06-14T06:27:58.567Z,13.47
2018-06-14T06:30:27.143Z,12.87
2018-06-14T06:32:55.685Z,14.60
2018-06-14T06:35:24.231Z,13.63
2018-06-14T06:37:52.824Z,14.17
2018-06-14T06:40:21.946Z,13.87
2018-06-14T06:42:51.783Z,13.17
2018-06-14T06:45:20.600Z,13.87
2018-06-14T06:47:49.394Z,14.37
2018-06-14T06:50:18.058Z,14.37
2018-06-14T06:52:46.662Z,12.97
2018-06-14T06:55:15.246Z,11.73
2018-06-14T06:57:43.751Z,11.80
2018-06-14T07:00:12.281Z,12.60
2018-06-14T07:02:40.781Z,11.67
2018-06-14T07:05:17.524Z,10.90
2018-06-14T07:07:45.686Z,10.67
2018-06-14T07:10:14.357Z,9.57
2018-06-14T07:12:42.867Z,9.33
2018-06-14T07:15:11.396Z,9.23
2018-06-14T07:17:39.872Z,9.37
2018-06-14T07:20:08.385Z,9.37
2018-06-14T07:22:36.941Z,9.63
2018-06-14T07:25:05.545Z,9.60
2018-06-14T07:30:27.834Z,8.93
2018-06-14T07:32:56.329Z,8.73
2018-06-14T07:35:24.866Z,8.43
2018-06-14T07:37:53.408Z,7.63
2018-06-14T07:40:22.049Z,7.93
2018-06-14T07:42:50.575Z,8.70
2018-06-14T07:45:19.246Z,8.63
2018-06-14T07:47:50.186Z,7.97
2018-06-14T07:50:18.671Z,7.40
2018-06-14T07:52:54.174Z,7.87
2018-06-14T07:55:22.707Z,6.80
2018-06-14T07:57:51.265Z,6.70
2018-06-14T08:00:19.808Z,5.73
2018-06-14T08:02:48.381Z,5.63
2018-06-14T08:05:16.985Z,6.30
2018-06-14T08:07:45.510Z,5.97
2018-06-14T08:10:14.035Z,6.30
2018-06-14T08:12:42.579Z,6.20
2018-06-14T08:15:12.717Z,5.80
2018-06-14T08:17:41.256Z,6.57
2018-06-14T08:20:10.273Z,7.20
2018-06-14T08:22:38.716Z,6.13
2018-06-14T08:25:08.205Z,7.10
2018-06-14T08:27:36.939Z,6.60
2018-06-14T08:30:06.595Z,6.23
2018-06-14T08:32:35.098Z,6.17
2018-06-14T08:35:03.698Z,6.00
2018-06-14T08:37:33.079Z,6.43
2018-06-14T08:40:01.563Z,5.83
2018-06-14T08:42:30.153Z,5.87
2018-06-14T08:44:58.585Z,6.50
2018-06-14T08:47:27.120Z,5.70
2018-06-14T08:49:55.784Z,5.57
2018-06-14T08:52:24.262Z,5.87
2018-06-14T08:54:52.740Z,5.47
2018-06-14T08:57:20.920Z,5.23
2018-06-14T08:59:49.481Z,6.70
2018-06-14T09:02:17.954Z,6.20
2018-06-14T09:04:46.392Z,5.97
2018-06-14T09:07:14.813Z,5.77
2018-06-14T09:09:43.232Z,5.17
2018-06-14T09:12:12.268Z,5.90
2018-06-14T09:14:40.740Z,5.67
2018-06-14T09:17:09.235Z,5.47
2018-06-14T09:19:37.688Z,5.60
2018-06-14T09:22:06.060Z,4.77
2018-06-14T09:24:34.650Z,6.10
2018-06-14T09:27:03.193Z,6.13
2018-06-14T09:29:31.706Z,5.60
2018-06-14T09:32:00.208Z,5.97
2018-06-14T09:34:28.642Z,5.20
2018-06-14T09:36:57.071Z,5.53
2018-06-14T09:39:25.561Z,6.10
2018-06-14T09:41:54.011Z,6.10
2018-06-14T09:44:26.091Z,5.70
2018-06-14T09:46:54.523Z,5.20
2018-06-14T09:49:22.980Z,6.23
2018-06-14T09:51:51.432Z,5.77
2018-06-14T09:54:19.887Z,5.50
2018-06-14T09:56:48.311Z,5.10
2018-06-14T09:59:16.791Z,5.53
2018-06-14T10:01:45.293Z,5.30
2018-06-14T10:04:13.751Z,4.70
2018-06-14T10:06:42.248Z,5.17
2018-06-14T10:09:12.100Z,4.83
2018-06-14T10:11:40.566Z,5.47
2018-06-14T10:14:09.473Z,4.90
2018-06-14T10:16:38.066Z,5.03
2018-06-14T10:19:06.466Z,4.87
2018-06-14T10:21:34.973Z,4.57
2018-06-14T10:24:03.543Z,4.90
2018-06-14T10:26:32.060Z,4.33
2018-06-14T10:29:01.704Z,4.83
2018-06-14T10:31:30.212Z,5.07
2018-06-14T10:33:59.309Z,4.80
2018-06-14T10:36:27.800Z,4.90
2018-06-14T10:38:56.810Z,5.87
2018-06-14T10:41:25.238Z,4.87
2018-06-14T10:43:53.708Z,4.67
2018-06-14T10:46:22.122Z,4.97
2018-06-14T10:48:50.606Z,4.97
2018-06-14T10:51:22.919Z,5.33
2018-06-14T10:53:51.359Z,5.00
2018-06-14T10:56:19.775Z,5.03
2018-06-14T10:58:47.907Z,5.33
2018-06-14T11:01:16.379Z,5.43
2018-06-14T11:03:44.900Z,4.57
2018-06-14T11:06:13.361Z,4.70
2018-06-14T11:08:41.804Z,4.73
2018-06-14T11:11:10.388Z,5.10
2018-06-14T11:13:40.032Z,4.10
2018-06-14T11:16:08.494Z,5.20
2018-06-14T11:18:36.989Z,4.77
2018-06-14T11:21:05.461Z,5.00
2018-06-14T11:23:33.957Z,4.60
2018-06-14T11:26:02.396Z,4.80
2018-06-14T11:30:00.123Z,4.70
2018-06-14T11:32:28.527Z,4.40
2018-06-14T11:34:57.019Z,4.37
2018-06-14T11:37:25.929Z,5.10
2018-06-14T11:39:54.391Z,5.37
2018-06-14T11:42:22.931Z,5.57
2018-06-14T11:44:51.522Z,5.30
2018-06-14T11:47:19.976Z,5.20
2018-06-14T11:49:48.441Z,5.83
2018-06-14T11:52:16.897Z,6.00
2018-06-14T11:54:45.422Z,6.60
2018-06-14T11:57:13.936Z,6.10
2018-06-14T11:59:42.370Z,6.80
2018-06-14T12:02:10.823Z,6.30
2018-06-14T12:04:39.232Z,6.50
2018-06-14T12:07:07.662Z,5.87
2018-06-14T12:09:36.121Z,6.30
2018-06-14T12:12:04.600Z,6.80
2018-06-14T12:14:33.007Z,6.93
2018-06-14T12:17:01.491Z,6.67
2018-06-14T12:19:29.969Z,7.83
2018-06-14T12:21:58.381Z,6.27
2018-06-14T12:24:26.888Z,7.17
2018-06-14T12:26:55.374Z,7.67
2018-06-14T12:29:23.833Z,6.90
2018-06-14T12:31:52.305Z,7.13
2018-06-14T12:34:21.263Z,7.07
2018-06-14T12:36:49.690Z,7.57
2018-06-14T12:39:18.128Z,7.30
2018-06-14T12:41:46.292Z,7.40
2018-06-14T12:44:14.721Z,7.23
2018-06-14T12:46:43.141Z,7.20
2018-06-14T12:49:11.560Z,7.07
2018-06-14T12:51:39.988Z,6.70
2018-06-14T12:54:08.451Z,6.70
2018-06-14T12:56:36.884Z,6.53
2018-06-14T12:59:05.360Z,6.80
2018-06-14T13:01:33.776Z,6.70
2018-06-14T13:04:02.254Z,6.57
2018-06-14T13:06:30.695Z,6.77
2018-06-14T13:08:59.100Z,7.60
2018-06-14T13:11:27.513Z,7.03
2018-06-14T13:13:55.985Z,6.60
2018-06-14T13:16:24.390Z,6.47
2018-06-14T13:18:52.828Z,6.83
2018-06-14T13:21:21.236Z,6.60
2018-06-14T13:23:49.660Z,6.50
2018-06-14T13:26:18.418Z,6.30
2018-06-14T13:28:46.558Z,6.60
2018-06-14T13:31:15.135Z,6.87
2018-06-14T13:33:43.569Z,6.37
2018-06-14T13:36:12.090Z,6.37
2018-06-14T13:38:40.617Z,7.27
2018-06-14T13:41:09.021Z,6.90
2018-06-14T13:43:37.439Z,7.27
2018-06-14T13:46:05.879Z,7.47
2018-06-14T13:48:34.344Z,7.60
2018-06-14T13:51:02.728Z,7.27
2018-06-14T13:53:31.136Z,7.23
2018-06-14T13:55:59.588Z,6.50
2018-06-14T13:58:28.032Z,6.87
2018-06-14T14:00:57.335Z,7.40
2018-06-14T14:03:25.488Z,6.70
2018-06-14T14:05:53.906Z,7.10
2018-06-14T14:08:22.334Z,6.73
2018-06-14T14:10:50.818Z,6.90
2018-06-14T14:13:19.284Z,6.93
2018-06-14T14:15:47.708Z,6.27
2018-06-14T14:18:16.133Z,7.30
2018-06-14T14:20:44.552Z,7.20
2018-06-14T14:23:12.937Z,7.30
2018-06-14T14:25:41.373Z,6.93
2018-06-14T14:28:09.783Z,6.60
2018-06-14T14:30:38.268Z,6.63
2018-06-14T14:33:07.063Z,7.55
2018-06-14T14:35:36.077Z,7.13
2018-06-14T14:38:04.539Z,7.03
2018-06-14T14:40:32.913Z,7.80
2018-06-14T14:43:01.292Z,7.17
2018-06-14T14:45:29.674Z,7.57
2018-06-14T14:47:58.025Z,7.80
2018-06-14T14:50:26.102Z,7.13
2018-06-14T14:52:54.514Z,7.73
2018-06-14T14:55:22.964Z,7.77
2018-06-14T14:57:51.303Z,8.00
2018-06-14T15:00:19.697Z,7.87
2018-06-14T15:02:48.057Z,8.03
2018-06-14T15:05:16.408Z,7.43
2018-06-14T15:07:44.721Z,7.13
2018-06-14T15:10:13.094Z,7.40
2018-06-14T15:12:41.439Z,6.63
2018-06-14T15:15:09.826Z,7.03
2018-06-14T15:17:38.195Z,6.80
2018-06-14T15:20:06.610Z,6.53
2018-06-14T15:22:34.989Z,6.30
2018-06-14T15:25:03.334Z,7.13
2018-06-14T15:27:31.728Z,6.57
2018-06-14T15:30:00.101Z,6.40
2018-06-14T15:32:28.414Z,6.83
2018-06-14T15:34:56.749Z,6.53
2018-06-14T15:37:25.165Z,6.47
2018-06-14T15:39:53.653Z,7.47
2018-06-14T15:42:22.013Z,8.17
2018-06-14T15:44:50.381Z,7.00
2018-06-14T15:47:18.799Z,8.47
2018-06-14T15:49:47.102Z,8.87
2018-06-14T15:52:15.443Z,9.23
2018-06-14T15:54:43.994Z,8.93
2018-06-14T15:57:12.355Z,9.53
2018-06-14T15:59:40.693Z,8.93
2018-06-14T16:02:09.073Z,9.23
2018-06-14T16:04:37.482Z,10.27
2018-06-14T16:07:05.852Z,9.27
2018-06-14T16:09:34.220Z,10.27
2018-06-14T16:12:02.640Z,9.53
2018-06-14T16:14:30.993Z,10.13
2018-06-14T16:16:59.410Z,10.07
2018-06-14T16:19:27.740Z,10.23
2018-06-14T16:21:56.087Z,10.00
2018-06-14T16:24:24.468Z,10.60
2018-06-14T16:26:52.912Z,11.20
2018-06-14T16:29:21.246Z,11.33
2018-06-14T16:31:49.622Z,11.67
2018-06-14T16:34:18.022Z,11.50
2018-06-14T16:36:46.420Z,12.73
2018-06-14T16:39:14.776Z,12.70
2018-06-14T16:41:43.095Z,12.07
2018-06-14T16:44:11.454Z,11.83
2018-06-14T16:46:39.835Z,11.80
2018-06-14T16:49:08.191Z,12.53
2018-06-14T16:51:36.859Z,12.40
2018-06-14T16:54:05.237Z,12.37
2018-06-14T16:56:33.331Z,11.93
2018-06-14T16:59:01.806Z,11.90
2018-06-14T17:01:30.121Z,13.47
2018-06-14T17:03:58.603Z,13.17
2018-06-14T17:06:26.977Z,14.87
2018-06-14T17:08:55.392Z,14.77
2018-06-14T17:11:23.793Z,14.23
2018-06-14T17:13:52.294Z,13.83
2018-06-14T17:16:20.627Z,12.80
2018-06-14T17:18:49.102Z,13.37
2018-06-14T17:21:17.462Z,13.77
2018-06-14T17:23:45.822Z,13.37
2018-06-14T17:26:14.184Z,13.47
2018-06-14T17:28:42.791Z,14.20
2018-06-14T17:31:11.232Z,13.93
2018-06-14T17:33:39.595Z,14.70
2018-06-14T17:36:07.991Z,14.93
2018-06-14T17:38:36.349Z,15.87
2018-06-14T17:41:04.805Z,14.07
2018-06-14T17:43:32.791Z,14.47
2018-06-14T17:46:01.387Z,14.80
2018-06-14T17:48:29.709Z,15.57
2018-06-14T17:50:58.055Z,16.27
2018-06-14T17:53:26.479Z,16.07
2018-06-14T17:55:54.930Z,17.37
2018-06-14T17:58:23.247Z,17.17
2018-06-14T18:00:51.678Z,18.77
2018-06-14T18:03:19.965Z,17.77
2018-06-14T18:05:48.282Z,18.17
2018-06-14T18:08:16.636Z,19.33
2018-06-14T18:10:45.025Z,18.63
2018-06-14T18:13:13.392Z,18.67
2018-06-14T18:15:41.775Z,18.33
2018-06-14T18:18:10.184Z,18.43
2018-06-14T18:20:39.258Z,19.30
2018-06-14T18:23:07.624Z,19.13
2018-06-14T18:25:36.017Z,19.47
2018-06-14T18:28:04.371Z,19.67
2018-06-14T18:30:32.777Z,20.33
2018-06-14T18:33:01.211Z,19.70
2018-06-14T18:35:29.549Z,20.23
2018-06-14T18:37:57.950Z,20.20
2018-06-14T18:40:26.342Z,21.30
2018-06-14T18:42:54.743Z,21.10
2018-06-14T18:45:23.103Z,20.50
2018-06-14T18:47:51.430Z,19.90
2018-06-14T18:50:19.750Z,20.63
2018-06-14T18:52:48.115Z,21.83
2018-06-14T18:55:16.495Z,20.97
2018-06-14T18:57:44.930Z,20.47
2018-06-14T19:00:13.068Z,20.27
2018-06-14T19:02:41.397Z,20.80
2018-06-14T19:05:09.843Z,21.27
2018-06-14T19:07:38.197Z,19.73
2018-06-14T19:10:06.547Z,20.10
2018-06-14T19:12:34.934Z,20.77
2018-06-14T19:15:03.330Z,21.10
2018-06-14T19:17:31.691Z,19.90
2018-06-14T19:19:59.992Z,21.63
2018-06-14T19:22:28.315Z,21.57
2018-06-14T19:24:56.655Z,21.77
2018-06-14T19:27:24.971Z,21.03
2018-06-14T19:29:53.315Z,23.40
2018-06-14T19:32:21.622Z,22.57
2018-06-14T19:34:49.933Z,22.80
2018-06-14T19:37:18.215Z,21.97
2018-06-14T19:39:46.305Z,23.40
2018-06-14T19:42:14.617Z,22.60
2018-06-14T19:44:43.017Z,21.73
2018-06-14T19:47:11.321Z,22.77
2018-06-14T19:49:39.654Z,23.03
2018-06-14T19:52:07.963Z,23.47
2018-06-14T19:54:36.319Z,22.83
2018-06-14T19:57:04.655Z,22.30
2018-06-14T19:59:33.014Z,23.80
2018-06-14T20:02:01.293Z,21.93
2018-06-14T20:04:30.568Z,23.43
2018-06-14T20:06:58.868Z,23.83
2018-06-14T20:09:27.148Z,22.23
2018-06-14T20:11:55.459Z,23.70
2018-06-14T20:14:23.881Z,24.73
2018-06-14T20:16:52.207Z,23.93
2018-06-14T20:19:20.539Z,25.50
2018-06-14T20:21:48.590Z,23.90
2018-06-14T20:24:16.883Z,23.87
2018-06-14T20:26:44.909Z,22.23
2018-06-14T20:29:13.192Z,22.77
2018-06-14T20:31:41.491Z,23.47
2018-06-14T20:34:09.789Z,23.27
2018-06-14T20:36:38.102Z,23.43
2018-06-14T20:39:11.241Z,22.60
2018-06-14T20:41:39.555Z,23.90
2018-06-14T20:44:07.909Z,23.43
2018-06-14T20:46:36.270Z,22.77
2018-06-14T20:49:04.584Z,22.80
2018-06-14T20:51:32.890Z,22.43
2018-06-14T20:54:01.443Z,24.57
2018-06-14T20:56:29.849Z,22.60
2018-06-14T20:58:58.325Z,23.53
2018-06-14T21:01:26.605Z,24.37
2018-06-14T21:03:55.031Z,22.73
2018-06-14T21:06:23.360Z,23.80
2018-06-14T21:08:51.692Z,23.97
2018-06-14T21:11:19.986Z,24.73
2018-06-14T21:13:48.325Z,24.17
2018-06-14T21:16:16.661Z,25.93
2018-06-14T21:18:45.028Z,24.47
2018-06-14T21:21:13.320Z,23.90
2018-06-14T21:23:41.596Z,24.57
2018-06-14T21:26:09.880Z,24.37
2018-06-14T21:28:38.875Z,25.60
2018-06-14T21:31:07.155Z,24.63
2018-06-14T21:33:35.513Z,25.50
2018-06-14T21:36:03.871Z,24.33
2018-06-14T21:38:32.186Z,26.13
2018-06-14T21:41:00.481Z,25.33
2018-06-14T21:43:28.853Z,24.33
2018-06-14T21:45:57.199Z,27.30
2018-06-14T21:48:25.196Z,26.00
2018-06-14T21:50:53.239Z,25.10
2018-06-14T21:53:21.577Z,24.97
2018-06-14T21:55:49.861Z,24.90
2018-06-14T21:58:18.232Z,24.80
2018-06-14T22:00:46.529Z,24.23
2018-06-14T22:03:20.151Z,24.83
2018-06-14T22:05:48.595Z,24.17
2018-06-14T22:08:16.935Z,24.77
2018-06-14T22:10:45.293Z,23.13
2018-06-14T22:13:13.564Z,23.80
2018-06-14T22:15:41.899Z,23.30
2018-06-14T22:18:10.211Z,23.43
2018-06-14T22:20:38.535Z,23.93
2018-06-14T22:23:06.868Z,23.27
2018-06-14T22:25:35.173Z,23.50
2018-06-14T22:28:03.499Z,24.43
2018-06-14T22:30:31.804Z,23.13
2018-06-14T22:33:11.479Z,22.27
2018-06-14T22:35:39.793Z,24.07
2018-06-14T22:38:08.117Z,21.33
2018-06-14T22:40:36.479Z,22.40
2018-06-14T22:43:04.788Z,21.90
2018-06-14T22:45:33.053Z,21.93
2018-06-14T22:48:01.352Z,21.87
2018-06-14T22:50:41.159Z,23.03
2018-06-14T22:53:10.421Z,22.30
2018-06-14T22:55:38.808Z,21.53
2018-06-14T22:58:07.132Z,21.13
2018-06-14T23:01:50.985Z,22.03
2018-06-14T23:04:20.671Z,21.37
2018-06-14T23:06:49.029Z,23.73
2018-06-14T23:10:27.585Z,22.37
2018-06-14T23:12:55.852Z,22.17
2018-06-14T23:15:24.149Z,23.30
2018-06-14T23:17:52.742Z,22.73
2018-06-14T23:20:21.881Z,23.73
2018-06-14T23:22:52.304Z,22.57
2018-06-14T23:25:22.087Z,22.13
2018-06-14T23:27:50.111Z,22.83
2018-06-14T23:30:18.733Z,23.73
2018-06-14T23:32:47.086Z,22.97
2018-06-14T23:35:16.087Z,23.07
2018-06-14T23:37:44.405Z,23.20
2018-06-14T23:40:12.733Z,24.43
2018-06-14T23:42:41.145Z,23.77
2018-06-14T23:45:09.431Z,23.23
2018-06-14T23:47:37.785Z,24.57
2018-06-14T23:50:06.519Z,24.50
2018-06-14T23:52:34.834Z,24.83
2018-06-14T23:55:03.140Z,24.23
2018-06-14T23:57:31.452Z,24.83
2018-06-14T23:59:59.779Z,24.53
